createdAt,value
2023-06-30T00:00:28.014Z,7.20
2023-06-30T00:01:28.034Z,7.51
2023-06-30T00:02:28.134Z,7.35
2023-06-30T00:03:28.277Z,7.23
2023-06-30T00:04:28.374Z,7.48
2023-06-30T00:05:28.202Z,7.33
2023-06-30T00:06:28.254Z,7.26
2023-06-30T00:07:28.289Z,7.63
2023-06-30T00:08:28.310Z,7.19
2023-06-30T00:09:28.369Z,7.59
2023-06-30T00:10:28.592Z,7.60
2023-06-30T00:11:28.441Z,7.39
2023-06-30T00:12:28.476Z,7.44
2023-06-30T00:13:28.546Z,7.49
2023-06-30T00:14:28.588Z,7.87
2023-06-30T00:15:28.694Z,7.79
2023-06-30T00:16:28.728Z,8.26
2023-06-30T00:17:28.766Z,7.95
2023-06-30T00:18:28.745Z,7.63
2023-06-30T00:19:28.831Z,7.69
2023-06-30T00:20:28.834Z,7.62
2023-06-30T00:21:28.835Z,7.44
2023-06-30T00:22:28.962Z,7.65
2023-06-30T00:23:28.951Z,7.77
2023-06-30T00:24:29.040Z,8.12
2023-06-30T00:25:29.058Z,7.48
2023-06-30T00:26:29.103Z,7.31
2023-06-30T00:27:29.116Z,7.56
2023-06-30T00:28:29.180Z,7.43
2023-06-30T00:29:29.214Z,8.03
2023-06-30T00:30:29.307Z,7.81
2023-06-30T00:31:29.367Z,7.69
2023-06-30T00:32:29.348Z,8.04
2023-06-30T00:33:29.424Z,7.99
2023-06-30T00:34:29.466Z,8.50
2023-06-30T00:35:29.532Z,8.33
2023-06-30T00:36:29.549Z,7.79
2023-06-30T00:37:29.568Z,8.12
2023-06-30T00:38:29.629Z,8.16
2023-06-30T00:39:29.678Z,8.15
2023-06-30T00:40:29.718Z,7.97
2023-06-30T00:41:29.777Z,7.82
2023-06-30T00:42:29.843Z,8.62
2023-06-30T00:43:29.855Z,8.63
2023-06-30T00:44:29.877Z,8.59
2023-06-30T00:45:29.934Z,8.44
2023-06-30T00:46:30.021Z,8.56
2023-06-30T00:47:30.046Z,8.60
2023-06-30T00:48:30.095Z,8.45
2023-06-30T00:49:30.095Z,8.82
2023-06-30T00:50:30.149Z,8.60
2023-06-30T00:51:30.176Z,8.54
2023-06-30T00:52:30.239Z,8.66
2023-06-30T00:53:30.293Z,8.61
2023-06-30T00:54:30.347Z,8.35
2023-06-30T00:55:30.364Z,8.34
2023-06-30T00:56:30.420Z,8.67
2023-06-30T00:57:30.467Z,8.39
2023-06-30T00:58:30.520Z,8.33
2023-06-30T00:59:30.559Z,8.84
2023-06-30T01:00:30.591Z,8.93
2023-06-30T01:01:30.658Z,8.33
2023-06-30T01:02:30.756Z,8.30
2023-06-30T01:03:30.855Z,8.68
2023-06-30T01:04:30.935Z,8.64
2023-06-30T01:05:30.839Z,8.47
2023-06-30T01:06:30.871Z,8.14
2023-06-30T01:07:31.014Z,8.63
2023-06-30T01:08:30.964Z,8.92
2023-06-30T01:09:31.018Z,9.42
2023-06-30T01:10:31.087Z,8.78
2023-06-30T01:11:31.115Z,8.81
2023-06-30T01:12:31.151Z,8.51
2023-06-30T01:13:31.206Z,8.71
2023-06-30T01:14:31.245Z,8.72
2023-06-30T01:15:31.340Z,8.84
2023-06-30T01:16:31.389Z,8.83
2023-06-30T01:17:31.396Z,8.94
2023-06-30T01:18:31.402Z,8.80
2023-06-30T01:19:31.464Z,9.11
2023-06-30T01:20:31.497Z,8.97
2023-06-30T01:21:31.565Z,8.91
2023-06-30T01:22:31.601Z,9.03
2023-06-30T01:23:31.645Z,9.12
2023-06-30T01:24:31.724Z,9.09
2023-06-30T01:25:31.804Z,8.92
2023-06-30T01:26:31.826Z,8.73
2023-06-30T01:27:31.827Z,8.59
2023-06-30T01:28:31.915Z,8.64
2023-06-30T01:29:31.953Z,8.54
2023-06-30T01:30:32.005Z,8.46
2023-06-30T01:31:32.047Z,8.68
2023-06-30T01:32:32.069Z,8.81
2023-06-30T01:33:32.090Z,8.72
2023-06-30T01:34:32.181Z,8.27
2023-06-30T01:35:32.196Z,8.17
2023-06-30T01:36:32.234Z,8.19
2023-06-30T01:37:32.313Z,8.41
2023-06-30T01:38:32.349Z,8.52
2023-06-30T01:39:32.375Z,8.45
2023-06-30T01:40:32.471Z,8.67
2023-06-30T01:41:32.460Z,8.66
2023-06-30T01:42:32.574Z,8.94
2023-06-30T01:43:32.557Z,8.86
2023-06-30T01:44:32.586Z,9.12
2023-06-30T01:45:32.613Z,9.33
2023-06-30T01:46:32.689Z,9.43
2023-06-30T01:47:32.750Z,9.40
2023-06-30T01:48:32.781Z,9.60
2023-06-30T01:49:32.753Z,9.53
2023-06-30T01:50:32.800Z,9.36
2023-06-30T01:51:32.845Z,9.08
2023-06-30T01:52:32.928Z,8.96
2023-06-30T01:53:32.925Z,9.06
2023-06-30T01:54:32.965Z,9.05
2023-06-30T01:55:33.076Z,9.24
2023-06-30T01:56:33.075Z,9.08
2023-06-30T01:57:33.090Z,9.27
2023-06-30T01:58:33.178Z,9.08
2023-06-30T01:59:33.201Z,9.21
2023-06-30T02:00:33.221Z,9.22
2023-06-30T02:01:33.373Z,9.09
2023-06-30T02:02:33.564Z,9.22
2023-06-30T02:03:33.481Z,9.29
2023-06-30T02:04:33.393Z,9.06
2023-06-30T02:05:33.447Z,9.07
2023-06-30T02:06:33.535Z,9.13
2023-06-30T02:07:33.654Z,8.94
2023-06-30T02:08:33.591Z,8.90
2023-06-30T02:09:43.238Z,8.89
2023-06-30T02:10:34.656Z,8.90
2023-06-30T02:11:33.644Z,8.91
2023-06-30T02:12:33.609Z,8.96
2023-06-30T02:13:33.625Z,9.21
2023-06-30T02:14:33.645Z,9.40
2023-06-30T02:15:33.627Z,9.16
2023-06-30T02:16:33.621Z,9.27
2023-06-30T02:17:33.687Z,9.12
2023-06-30T02:18:33.591Z,8.96
2023-06-30T02:19:33.617Z,9.48
2023-06-30T02:20:33.803Z,9.13
2023-06-30T02:21:33.738Z,9.48
2023-06-30T02:22:33.766Z,9.55
2023-06-30T02:23:33.856Z,9.78
2023-06-30T02:24:33.903Z,9.72
2023-06-30T02:25:33.988Z,9.44
2023-06-30T02:26:33.971Z,9.75
2023-06-30T02:27:34.015Z,9.32
2023-06-30T02:28:34.100Z,9.37
2023-06-30T02:29:34.095Z,9.11
2023-06-30T02:30:34.169Z,9.29
2023-06-30T02:31:34.317Z,9.06
2023-06-30T02:32:34.347Z,9.12
2023-06-30T02:33:34.385Z,9.14
2023-06-30T02:34:34.408Z,9.01
2023-06-30T02:35:34.562Z,9.32
2023-06-30T02:36:34.521Z,9.20
2023-06-30T02:37:34.608Z,9.09
2023-06-30T02:38:34.638Z,9.51
2023-06-30T02:39:34.718Z,9.39
2023-06-30T02:40:34.808Z,9.59
2023-06-30T02:41:34.830Z,9.37
2023-06-30T02:42:34.906Z,9.75
2023-06-30T02:43:34.977Z,9.64
2023-06-30T02:44:35.031Z,9.56
2023-06-30T02:45:35.202Z,9.76
2023-06-30T02:46:35.200Z,9.81
2023-06-30T02:47:35.231Z,9.97
2023-06-30T02:48:35.298Z,9.64
2023-06-30T02:49:35.293Z,9.60
2023-06-30T02:50:35.404Z,9.87
2023-06-30T02:51:35.476Z,9.70
2023-06-30T02:52:35.512Z,9.87
2023-06-30T02:53:35.557Z,10.01
2023-06-30T02:54:35.625Z,9.92
2023-06-30T02:55:38.777Z,9.83
2023-06-30T02:56:35.685Z,9.85
2023-06-30T02:57:35.663Z,9.65
2023-06-30T02:58:35.703Z,9.90
2023-06-30T02:59:35.669Z,9.84
2023-06-30T03:00:35.701Z,9.62
2023-06-30T03:01:35.785Z,9.89
2023-06-30T03:02:35.761Z,9.81
2023-06-30T03:03:35.702Z,9.44
2023-06-30T03:04:35.620Z,9.36
2023-06-30T03:05:35.626Z,9.63
2023-06-30T03:06:35.580Z,9.79
2023-06-30T03:07:35.859Z,9.42
2023-06-30T03:08:35.592Z,9.51
2023-06-30T03:09:35.608Z,9.55
2023-06-30T03:10:35.620Z,9.27
2023-06-30T03:11:35.578Z,9.28
2023-06-30T03:12:35.564Z,9.24
2023-06-30T03:13:35.573Z,9.37
2023-06-30T03:14:35.565Z,9.44
2023-06-30T03:15:35.600Z,9.61
2023-06-30T03:16:35.577Z,9.44
2023-06-30T03:17:35.521Z,9.39
2023-06-30T03:18:35.530Z,9.37
2023-06-30T03:19:35.534Z,9.34
2023-06-30T03:20:35.539Z,9.75
2023-06-30T03:21:35.554Z,9.64
2023-06-30T03:22:35.520Z,9.42
2023-06-30T03:23:35.528Z,9.50
2023-06-30T03:24:35.529Z,9.53
2023-06-30T03:25:35.510Z,9.61
2023-06-30T03:26:35.494Z,9.48
2023-06-30T03:27:35.465Z,9.64
2023-06-30T03:28:35.470Z,9.70
2023-06-30T03:29:35.458Z,9.67
2023-06-30T03:30:35.555Z,9.81
2023-06-30T03:31:35.547Z,9.68
2023-06-30T03:32:35.542Z,9.69
2023-06-30T03:33:35.577Z,9.63
2023-06-30T03:34:35.616Z,10.11
2023-06-30T03:35:35.649Z,10.05
2023-06-30T03:36:35.651Z,9.79
2023-06-30T03:37:35.705Z,9.98
2023-06-30T03:38:35.832Z,9.86
2023-06-30T03:39:35.819Z,9.93
2023-06-30T03:40:35.937Z,10.00
2023-06-30T03:41:35.897Z,9.93
2023-06-30T03:42:35.934Z,9.96
2023-06-30T03:43:36.016Z,10.01
2023-06-30T03:44:36.015Z,9.96
2023-06-30T03:45:36.065Z,10.23
2023-06-30T03:46:36.124Z,10.24
2023-06-30T03:47:36.175Z,10.14
2023-06-30T03:48:36.154Z,10.45
2023-06-30T03:49:36.189Z,10.21
2023-06-30T03:50:36.191Z,10.29
2023-06-30T03:51:36.251Z,10.24
2023-06-30T03:52:36.244Z,10.28
2023-06-30T03:53:36.317Z,10.18
2023-06-30T03:54:36.354Z,9.89
2023-06-30T03:55:36.377Z,10.13
2023-06-30T03:56:36.416Z,10.14
2023-06-30T03:57:36.449Z,10.05
2023-06-30T03:58:36.465Z,10.27
2023-06-30T03:59:36.514Z,10.10
2023-06-30T04:00:36.529Z,10.14
2023-06-30T04:01:36.540Z,10.04
2023-06-30T04:02:36.611Z,10.01
2023-06-30T04:03:36.711Z,10.00
2023-06-30T04:04:36.794Z,10.11
2023-06-30T04:05:36.752Z,10.13
2023-06-30T04:06:36.792Z,10.18
2023-06-30T04:07:37.030Z,9.79
2023-06-30T04:08:36.945Z,10.29
2023-06-30T04:09:37.004Z,9.95
2023-06-30T04:10:37.060Z,9.55
2023-06-30T04:11:37.099Z,9.54
2023-06-30T04:12:37.175Z,9.50
2023-06-30T04:13:37.286Z,9.65
2023-06-30T04:14:37.321Z,9.49
2023-06-30T04:15:37.368Z,9.30
2023-06-30T04:16:37.430Z,9.47
2023-06-30T04:17:37.495Z,9.67
2023-06-30T04:18:37.567Z,9.64
2023-06-30T04:19:37.598Z,9.47
2023-06-30T04:20:37.690Z,9.67
2023-06-30T04:21:37.704Z,9.65
2023-06-30T04:22:37.796Z,9.55
2023-06-30T04:23:37.824Z,9.54
2023-06-30T04:24:37.934Z,9.54
2023-06-30T04:25:37.981Z,9.40
2023-06-30T04:26:38.103Z,9.23
2023-06-30T04:27:38.121Z,9.41
2023-06-30T04:28:38.218Z,9.22
2023-06-30T04:29:38.209Z,9.43
2023-06-30T04:30:38.682Z,9.36
2023-06-30T04:31:38.399Z,9.23
2023-06-30T04:32:38.463Z,9.15
2023-06-30T04:33:38.445Z,9.07
2023-06-30T04:34:38.513Z,9.38
2023-06-30T04:35:38.609Z,8.99
2023-06-30T04:36:38.652Z,9.15
2023-06-30T04:37:38.722Z,9.13
2023-06-30T04:38:38.861Z,9.07
2023-06-30T04:39:38.834Z,8.96
2023-06-30T04:40:38.871Z,9.46
2023-06-30T04:41:38.975Z,9.29
2023-06-30T04:42:39.069Z,9.42
2023-06-30T04:43:39.063Z,9.16
2023-06-30T04:44:39.164Z,9.05
2023-06-30T04:45:39.174Z,9.16
2023-06-30T04:46:39.326Z,9.25
2023-06-30T04:47:39.379Z,9.40
2023-06-30T04:48:39.386Z,9.23
2023-06-30T04:49:39.402Z,9.29
2023-06-30T04:50:39.488Z,9.06
2023-06-30T04:51:39.553Z,9.11
2023-06-30T04:52:39.639Z,8.91
2023-06-30T04:53:39.679Z,9.08
2023-06-30T04:54:39.721Z,9.00
2023-06-30T04:55:39.803Z,8.98
2023-06-30T04:56:39.844Z,9.19
2023-06-30T04:57:39.902Z,9.16
2023-06-30T04:58:39.963Z,8.91
2023-06-30T04:59:40.067Z,8.54
2023-06-30T05:00:40.126Z,8.56
2023-06-30T05:01:40.177Z,9.06
2023-06-30T05:02:40.214Z,9.03
2023-06-30T05:03:40.260Z,8.96
2023-06-30T05:04:40.313Z,8.70
2023-06-30T05:05:40.413Z,8.81
2023-06-30T05:06:40.390Z,8.64
2023-06-30T05:07:40.525Z,8.87
2023-06-30T05:08:40.459Z,8.93
2023-06-30T05:09:40.547Z,9.15
2023-06-30T05:10:40.583Z,9.24
2023-06-30T05:11:40.653Z,9.43
2023-06-30T05:12:40.601Z,9.52
2023-06-30T05:13:40.616Z,9.39
2023-06-30T05:14:40.624Z,9.69
2023-06-30T05:15:40.718Z,9.65
2023-06-30T05:16:40.722Z,9.62
2023-06-30T05:17:40.812Z,9.72
2023-06-30T05:18:40.754Z,9.50
2023-06-30T05:19:40.774Z,9.62
2023-06-30T05:20:40.829Z,9.60
2023-06-30T05:21:40.868Z,9.57
2023-06-30T05:22:40.898Z,9.73
2023-06-30T05:23:40.952Z,9.71
2023-06-30T05:24:40.965Z,9.54
2023-06-30T05:25:41.002Z,9.53
2023-06-30T05:26:41.112Z,9.78
2023-06-30T05:27:41.056Z,9.49
2023-06-30T05:28:43.166Z,9.39
2023-06-30T05:29:42.129Z,9.41
2023-06-30T05:30:41.122Z,9.45
2023-06-30T05:31:41.152Z,9.43
2023-06-30T05:32:41.188Z,9.43
2023-06-30T05:33:41.095Z,9.73
2023-06-30T05:34:41.081Z,9.90
2023-06-30T05:35:41.053Z,9.56
2023-06-30T05:36:41.080Z,9.43
2023-06-30T05:37:41.117Z,9.33
2023-06-30T05:38:41.163Z,9.13
2023-06-30T05:39:41.199Z,9.07
2023-06-30T05:40:41.284Z,9.22
2023-06-30T05:41:41.321Z,9.27
2023-06-30T05:42:41.349Z,9.51
2023-06-30T05:43:41.427Z,9.11
2023-06-30T05:44:41.507Z,9.27
2023-06-30T05:45:41.573Z,9.23
2023-06-30T05:46:41.612Z,9.12
2023-06-30T05:47:41.692Z,9.00
2023-06-30T05:48:41.645Z,9.39
2023-06-30T05:49:41.713Z,9.65
2023-06-30T05:50:42.505Z,9.77
2023-06-30T05:51:41.873Z,9.87
2023-06-30T05:52:41.835Z,10.25
2023-06-30T05:53:41.884Z,10.89
2023-06-30T05:54:41.907Z,11.62
2023-06-30T05:55:42.028Z,12.07
2023-06-30T05:56:41.920Z,12.76
2023-06-30T05:57:41.950Z,13.13
2023-06-30T05:58:41.969Z,13.27
2023-06-30T05:59:41.947Z,14.80
2023-06-30T06:00:41.928Z,15.89
2023-06-30T06:01:41.977Z,15.31
2023-06-30T06:02:42.058Z,15.54
2023-06-30T06:03:42.153Z,15.87
2023-06-30T06:04:42.135Z,16.05
2023-06-30T06:05:42.061Z,16.29
2023-06-30T06:06:42.022Z,16.58
2023-06-30T06:07:42.082Z,14.20
2023-06-30T06:08:42.053Z,15.28
2023-06-30T06:09:42.053Z,13.51
2023-06-30T06:10:42.149Z,11.70
2023-06-30T06:11:42.156Z,12.73
2023-06-30T06:12:42.192Z,12.05
2023-06-30T06:13:42.281Z,12.96
2023-06-30T06:14:42.302Z,11.65
2023-06-30T06:15:42.484Z,11.03
2023-06-30T06:16:42.365Z,10.38
2023-06-30T06:17:42.405Z,10.63
2023-06-30T06:18:42.364Z,11.47
2023-06-30T06:19:42.370Z,10.78
2023-06-30T06:20:42.411Z,10.16
2023-06-30T06:21:42.422Z,10.23
2023-06-30T06:22:42.439Z,10.78
2023-06-30T06:23:42.492Z,10.17
2023-06-30T06:24:42.502Z,10.77
2023-06-30T06:25:43.257Z,11.64
2023-06-30T06:26:42.491Z,12.06
2023-06-30T06:27:42.546Z,11.23
2023-06-30T06:28:42.515Z,10.48
2023-06-30T06:29:42.486Z,11.00
2023-06-30T06:30:42.559Z,12.56
2023-06-30T06:31:42.509Z,13.51
2023-06-30T06:32:42.545Z,12.39
2023-06-30T06:33:42.513Z,11.64
2023-06-30T06:34:42.492Z,11.08
2023-06-30T06:35:42.817Z,11.75
2023-06-30T06:36:42.451Z,12.36
2023-06-30T06:37:42.484Z,12.99
2023-06-30T06:38:42.449Z,12.79
2023-06-30T06:39:42.438Z,13.56
2023-06-30T06:40:42.457Z,12.46
2023-06-30T06:41:42.418Z,12.03
2023-06-30T06:42:42.445Z,11.94
2023-06-30T06:43:42.448Z,13.59
2023-06-30T06:44:42.401Z,12.96
2023-06-30T06:45:42.688Z,12.67
2023-06-30T06:46:42.426Z,12.05
2023-06-30T06:47:42.444Z,12.95
2023-06-30T06:48:42.498Z,11.22
2023-06-30T06:49:42.751Z,11.57
2023-06-30T06:50:42.380Z,12.79
2023-06-30T06:51:42.369Z,14.54
2023-06-30T06:52:42.373Z,15.73
2023-06-30T06:53:42.358Z,17.07
2023-06-30T06:54:42.315Z,18.56
2023-06-30T06:55:42.537Z,18.26
2023-06-30T06:56:42.359Z,18.68
2023-06-30T06:57:42.311Z,18.33
2023-06-30T06:58:42.316Z,18.24
2023-06-30T06:59:42.299Z,18.34
2023-06-30T07:00:42.312Z,18.31
2023-06-30T07:01:42.335Z,17.95
2023-06-30T07:02:42.338Z,17.61
2023-06-30T07:03:42.387Z,17.55
2023-06-30T07:04:42.259Z,17.07
2023-06-30T07:05:42.520Z,16.91
2023-06-30T07:06:42.219Z,17.06
2023-06-30T07:07:42.317Z,16.57
2023-06-30T07:08:42.240Z,16.15
2023-06-30T07:09:42.236Z,16.08
2023-06-30T07:10:42.232Z,15.97
2023-06-30T07:11:42.212Z,15.74
2023-06-30T07:12:42.187Z,15.67
2023-06-30T07:13:42.207Z,14.40
2023-06-30T07:14:43.095Z,14.54
2023-06-30T07:15:42.570Z,14.15
2023-06-30T07:16:42.469Z,14.71
2023-06-30T07:17:42.485Z,14.99
2023-06-30T07:18:42.589Z,15.43
2023-06-30T07:19:42.517Z,14.88
2023-06-30T07:20:42.574Z,13.85
2023-06-30T07:21:42.569Z,14.33
2023-06-30T07:22:42.575Z,14.70
2023-06-30T07:23:42.626Z,14.76
2023-06-30T07:24:44.081Z,14.61
2023-06-30T07:25:42.855Z,14.42
2023-06-30T07:26:42.740Z,13.99
2023-06-30T07:27:42.701Z,14.22
2023-06-30T07:28:42.771Z,14.15
2023-06-30T07:29:42.777Z,13.95
2023-06-30T07:30:42.746Z,14.27
2023-06-30T07:31:42.832Z,14.21
2023-06-30T07:32:42.854Z,14.23
2023-06-30T07:33:42.821Z,14.05
2023-06-30T07:34:42.864Z,14.05
2023-06-30T07:35:42.994Z,13.72
2023-06-30T07:36:42.856Z,13.62
2023-06-30T07:37:42.896Z,13.49
2023-06-30T07:38:43.696Z,13.62
2023-06-30T07:39:42.919Z,13.68
2023-06-30T07:41:42.977Z,13.81
2023-06-30T07:42:42.885Z,13.68
2023-06-30T07:43:42.890Z,13.92
2023-06-30T07:44:42.885Z,13.77
2023-06-30T07:45:43.123Z,13.66
2023-06-30T07:46:42.894Z,13.57
2023-06-30T07:47:42.921Z,13.56
2023-06-30T07:48:42.946Z,13.35
2023-06-30T07:49:42.847Z,14.09
2023-06-30T07:50:54.683Z,15.62
2023-06-30T07:51:43.813Z,15.71
2023-06-30T07:52:43.990Z,16.19
2023-06-30T07:53:43.733Z,17.03
2023-06-30T07:54:42.840Z,16.41
2023-06-30T07:55:43.151Z,12.19
2023-06-30T07:56:42.792Z,12.98
2023-06-30T07:57:42.868Z,12.69
2023-06-30T07:58:42.790Z,13.03
2023-06-30T07:59:42.799Z,13.77
2023-06-30T08:00:42.801Z,16.20
2023-06-30T08:01:42.789Z,13.16
2023-06-30T08:02:42.833Z,12.13
2023-06-30T08:03:42.955Z,13.77
2023-06-30T08:04:42.952Z,15.84
2023-06-30T08:05:43.235Z,13.67
2023-06-30T08:06:42.733Z,14.68
2023-06-30T08:07:48.982Z,14.22
2023-06-30T08:08:43.714Z,14.29
2023-06-30T08:09:42.697Z,14.50
2023-06-30T08:10:44.709Z,15.16
2023-06-30T08:11:42.718Z,15.76
2023-06-30T08:12:42.722Z,12.85
2023-06-30T08:13:42.697Z,11.82
2023-06-30T08:14:42.736Z,11.77
2023-06-30T08:15:44.677Z,9.77
2023-06-30T08:16:42.775Z,10.81
2023-06-30T08:17:54.506Z,12.32
2023-06-30T08:18:51.327Z,12.37
2023-06-30T08:19:47.695Z,12.39
2023-06-30T08:20:43.749Z,12.42
2023-06-30T08:21:42.762Z,12.72
2023-06-30T08:22:43.664Z,12.52
2023-06-30T08:23:42.814Z,10.29
2023-06-30T08:24:42.742Z,11.43
2023-06-30T08:25:43.033Z,7.24
2023-06-30T08:26:42.739Z,7.12
2023-06-30T08:27:42.773Z,6.37
2023-06-30T08:28:42.684Z,5.54
2023-06-30T08:29:42.739Z,7.52
2023-06-30T08:30:42.836Z,6.71
2023-06-30T08:31:42.826Z,6.22
2023-06-30T08:32:42.883Z,5.88
2023-06-30T08:33:43.009Z,6.44
2023-06-30T08:34:42.944Z,5.96
2023-06-30T08:35:43.131Z,5.12
2023-06-30T08:36:43.005Z,4.11
2023-06-30T08:37:43.014Z,3.63
2023-06-30T08:38:43.078Z,4.24
2023-06-30T08:39:43.085Z,5.04
2023-06-30T08:40:43.116Z,4.73
2023-06-30T08:41:43.139Z,4.06
2023-06-30T08:42:43.203Z,5.38
2023-06-30T08:43:43.165Z,7.31
2023-06-30T08:44:43.169Z,9.06
2023-06-30T08:45:43.526Z,10.39
2023-06-30T08:46:43.278Z,12.03
2023-06-30T08:47:43.611Z,13.22
2023-06-30T08:48:43.382Z,14.55
2023-06-30T08:49:43.451Z,16.20
2023-06-30T08:50:43.453Z,17.98
2023-06-30T08:51:43.472Z,20.40
2023-06-30T08:52:43.491Z,20.62
2023-06-30T08:53:43.520Z,21.40
2023-06-30T08:54:43.557Z,21.64
2023-06-30T08:55:43.782Z,21.80
2023-06-30T08:56:43.597Z,21.97
2023-06-30T08:57:43.613Z,22.31
2023-06-30T08:58:43.614Z,22.13
2023-06-30T08:59:44.612Z,22.19
2023-06-30T09:00:43.640Z,22.22
2023-06-30T09:01:45.554Z,21.49
2023-06-30T09:02:43.604Z,20.89
2023-06-30T09:03:43.688Z,21.60
2023-06-30T09:04:43.581Z,21.57
2023-06-30T09:05:43.786Z,21.66
2023-06-30T09:06:43.535Z,21.46
2023-06-30T09:07:43.669Z,21.32
2023-06-30T09:08:43.536Z,20.33
2023-06-30T09:09:43.544Z,20.42
2023-06-30T09:10:43.549Z,21.17
2023-06-30T09:11:43.514Z,22.02
2023-06-30T09:12:43.517Z,23.63
2023-06-30T09:13:43.543Z,22.06
2023-06-30T09:14:43.476Z,22.20
2023-06-30T09:15:43.850Z,20.77
2023-06-30T09:16:43.523Z,19.47
2023-06-30T09:17:43.508Z,22.60
2023-06-30T09:18:43.477Z,23.43
2023-06-30T09:19:43.472Z,21.68
2023-06-30T09:20:43.458Z,20.14
2023-06-30T09:21:43.467Z,20.26
2023-06-30T09:22:55.100Z,19.27
2023-06-30T09:23:44.459Z,19.33
2023-06-30T09:24:43.433Z,19.72
2023-06-30T09:25:43.705Z,19.97
2023-06-30T09:26:43.394Z,20.18
2023-06-30T09:27:43.399Z,20.74
2023-06-30T09:28:44.409Z,19.78
2023-06-30T09:29:43.396Z,19.45
2023-06-30T09:30:43.428Z,19.04
2023-06-30T09:31:43.413Z,19.03
2023-06-30T09:32:43.457Z,18.83
2023-06-30T09:33:43.407Z,18.64
2023-06-30T09:34:43.348Z,18.55
2023-06-30T09:35:43.632Z,18.81
2023-06-30T09:36:43.377Z,18.05
2023-06-30T09:37:43.391Z,17.55
2023-06-30T09:38:43.350Z,16.83
2023-06-30T09:39:43.307Z,16.06
2023-06-30T09:40:43.757Z,15.85
2023-06-30T09:41:43.302Z,15.68
2023-06-30T09:42:44.212Z,15.45
2023-06-30T09:43:43.314Z,15.60
2023-06-30T09:44:43.316Z,15.62
2023-06-30T09:45:43.822Z,15.38
2023-06-30T09:46:43.376Z,15.22
2023-06-30T09:47:43.293Z,14.36
2023-06-30T09:48:43.304Z,14.17
2023-06-30T09:49:43.309Z,14.94
2023-06-30T09:50:43.316Z,15.42
2023-06-30T09:51:43.321Z,15.98
2023-06-30T09:52:43.322Z,16.48
2023-06-30T09:53:43.353Z,16.96
2023-06-30T09:54:45.215Z,16.36
2023-06-30T09:55:43.522Z,17.65
2023-06-30T09:56:43.300Z,19.38
2023-06-30T09:57:43.311Z,19.17
2023-06-30T09:58:43.316Z,19.09
2023-06-30T09:59:43.330Z,20.07
2023-06-30T10:00:43.783Z,21.03
2023-06-30T10:01:43.383Z,21.08
2023-06-30T10:02:43.434Z,15.40
2023-06-30T10:03:43.404Z,12.33
2023-06-30T10:04:43.363Z,11.58
2023-06-30T10:05:44.074Z,11.52
2023-06-30T10:06:43.412Z,11.41
2023-06-30T10:07:43.469Z,11.96
2023-06-30T10:08:43.390Z,11.44
2023-06-30T10:09:43.392Z,12.38
2023-06-30T10:10:43.793Z,12.69
2023-06-30T10:11:43.429Z,11.80
2023-06-30T10:12:44.329Z,11.28
2023-06-30T10:13:43.414Z,10.14
2023-06-30T10:14:43.436Z,9.62
2023-06-30T10:15:43.982Z,9.96
2023-06-30T10:16:43.494Z,11.19
2023-06-30T10:17:43.634Z,11.85
2023-06-30T10:18:43.524Z,11.99
2023-06-30T10:19:43.525Z,11.54
2023-06-30T10:20:49.168Z,11.48
2023-06-30T10:21:44.544Z,11.48
2023-06-30T10:22:43.534Z,10.59
2023-06-30T10:23:43.496Z,9.61
2023-06-30T10:24:43.453Z,9.47
2023-06-30T10:25:43.628Z,8.88
2023-06-30T10:26:43.519Z,9.08
2023-06-30T10:27:43.470Z,9.13
2023-06-30T10:28:43.460Z,8.17
2023-06-30T10:29:43.486Z,7.56
2023-06-30T10:30:43.750Z,7.76
2023-06-30T10:31:43.515Z,7.87
2023-06-30T10:32:43.513Z,7.73
2023-06-30T10:33:43.471Z,8.04
2023-06-30T10:34:43.425Z,8.21
2023-06-30T10:35:44.168Z,7.61
2023-06-30T10:36:43.418Z,7.91
2023-06-30T10:37:43.420Z,7.49
2023-06-30T10:38:43.434Z,7.37
2023-06-30T10:39:43.457Z,7.42
2023-06-30T10:40:43.815Z,7.06
2023-06-30T10:41:43.570Z,6.86
2023-06-30T10:42:43.620Z,7.12
2023-06-30T10:43:43.787Z,7.46
2023-06-30T10:44:43.745Z,7.24
2023-06-30T10:45:44.012Z,6.70
2023-06-30T10:46:43.959Z,7.79
2023-06-30T10:47:43.873Z,9.19
2023-06-30T10:48:43.855Z,10.02
2023-06-30T10:49:43.885Z,10.26
2023-06-30T10:50:43.908Z,10.67
2023-06-30T10:51:43.904Z,11.50
2023-06-30T10:52:43.925Z,12.94
2023-06-30T10:53:43.919Z,12.72
2023-06-30T10:54:43.947Z,12.77
2023-06-30T10:55:43.951Z,13.11
2023-06-30T10:56:43.907Z,14.09
2023-06-30T10:57:43.919Z,13.67
2023-06-30T10:58:43.999Z,15.49
2023-06-30T10:59:44.005Z,16.17
2023-06-30T11:00:43.999Z,16.27
2023-06-30T11:01:44.038Z,16.87
2023-06-30T11:02:44.122Z,14.43
2023-06-30T11:03:44.164Z,16.78
2023-06-30T11:04:44.307Z,16.53
2023-06-30T11:05:44.553Z,16.41
2023-06-30T11:06:44.290Z,18.17
2023-06-30T11:07:44.287Z,17.30
2023-06-30T11:08:44.368Z,16.76
2023-06-30T11:09:44.405Z,17.49
2023-06-30T11:10:44.540Z,19.08
2023-06-30T11:11:44.552Z,16.35
2023-06-30T11:12:44.594Z,19.23
2023-06-30T11:13:44.669Z,19.85
2023-06-30T11:14:44.777Z,18.62
2023-06-30T11:15:45.395Z,16.54
2023-06-30T11:16:44.868Z,17.36
2023-06-30T11:17:44.953Z,19.24
2023-06-30T11:18:45.060Z,18.60
2023-06-30T11:19:45.008Z,18.71
2023-06-30T11:20:45.052Z,18.25
2023-06-30T11:21:45.115Z,18.03
2023-06-30T11:22:45.176Z,18.52
2023-06-30T11:23:45.189Z,20.63
2023-06-30T11:24:45.233Z,19.64
2023-06-30T11:25:45.306Z,18.38
2023-06-30T11:26:45.419Z,21.38
2023-06-30T11:27:45.382Z,20.00
2023-06-30T11:28:45.425Z,22.46
2023-06-30T11:29:45.510Z,19.17
2023-06-30T11:30:45.560Z,16.46
2023-06-30T11:31:45.568Z,17.31
2023-06-30T11:32:45.650Z,19.63
2023-06-30T11:33:45.664Z,22.94
2023-06-30T11:34:45.715Z,23.84
2023-06-30T11:35:45.969Z,23.28
2023-06-30T11:36:45.747Z,22.92
2023-06-30T11:37:45.802Z,19.41
2023-06-30T11:38:45.839Z,20.68
2023-06-30T11:39:45.885Z,22.38
2023-06-30T11:40:45.918Z,23.50
2023-06-30T11:41:45.992Z,21.36
2023-06-30T11:42:46.032Z,19.47
2023-06-30T11:43:46.038Z,21.83
2023-06-30T11:44:46.075Z,21.35
2023-06-30T11:45:46.292Z,20.55
2023-06-30T11:46:46.248Z,15.97
2023-06-30T11:47:46.396Z,14.76
2023-06-30T11:48:46.288Z,14.35
2023-06-30T11:49:46.368Z,15.70
2023-06-30T11:50:46.687Z,15.51
2023-06-30T11:51:46.493Z,16.53
2023-06-30T11:52:46.550Z,16.04
2023-06-30T11:53:46.596Z,11.26
2023-06-30T11:54:46.693Z,13.24
2023-06-30T11:55:46.843Z,13.51
2023-06-30T11:56:46.781Z,12.71
2023-06-30T11:57:46.866Z,10.78
2023-06-30T11:58:46.869Z,10.57
2023-06-30T11:59:46.919Z,8.79
2023-06-30T12:00:47.224Z,9.69
2023-06-30T12:01:46.979Z,11.40
2023-06-30T12:02:48.719Z,10.47
2023-06-30T12:03:47.202Z,8.34
2023-06-30T12:04:47.113Z,8.47
2023-06-30T12:05:47.182Z,7.90
2023-06-30T12:06:47.039Z,8.30
2023-06-30T12:07:47.019Z,7.83
2023-06-30T12:08:47.008Z,7.82
2023-06-30T12:09:46.985Z,6.87
2023-06-30T12:10:47.120Z,6.94
2023-06-30T12:11:47.000Z,7.19
2023-06-30T12:12:46.963Z,6.09
2023-06-30T12:13:46.987Z,6.43
2023-06-30T12:14:46.982Z,6.45
2023-06-30T12:15:47.960Z,6.34
2023-06-30T12:16:46.982Z,6.05
2023-06-30T12:17:46.995Z,6.29
2023-06-30T12:18:46.951Z,5.60
2023-06-30T12:19:46.919Z,6.23
2023-06-30T12:20:46.922Z,5.54
2023-06-30T12:21:46.946Z,5.15
2023-06-30T12:22:46.917Z,4.91
2023-06-30T12:23:46.906Z,5.44
2023-06-30T12:24:46.931Z,5.59
2023-06-30T12:25:47.202Z,4.94
2023-06-30T12:26:46.949Z,4.36
2023-06-30T12:27:46.887Z,4.06
2023-06-30T12:28:46.913Z,4.57
2023-06-30T12:29:46.868Z,4.38
2023-06-30T12:30:47.133Z,3.77
2023-06-30T12:31:46.841Z,3.94
2023-06-30T12:32:46.882Z,4.08
2023-06-30T12:33:46.841Z,3.56
2023-06-30T12:34:47.047Z,3.81
2023-06-30T12:35:47.816Z,3.66
2023-06-30T12:36:46.789Z,2.99
2023-06-30T12:37:46.811Z,3.26
2023-06-30T12:38:46.837Z,3.02
2023-06-30T12:39:46.793Z,3.26
2023-06-30T12:40:47.001Z,3.06
2023-06-30T12:41:46.773Z,3.29
2023-06-30T12:42:46.752Z,3.74
2023-06-30T12:43:46.794Z,3.49
2023-06-30T12:44:46.753Z,3.68
2023-06-30T12:45:46.838Z,3.26
2023-06-30T12:46:46.768Z,3.42
2023-06-30T12:47:46.790Z,3.37
2023-06-30T12:48:46.773Z,3.43
2023-06-30T12:49:46.712Z,3.41
2023-06-30T12:50:47.034Z,3.54
2023-06-30T12:51:46.741Z,3.21
2023-06-30T12:52:46.730Z,3.19
2023-06-30T12:53:46.690Z,3.54
2023-06-30T12:54:46.703Z,3.62
2023-06-30T12:55:46.830Z,3.47
2023-06-30T12:56:46.656Z,3.32
2023-06-30T12:57:46.692Z,3.13
2023-06-30T12:58:46.703Z,2.99
2023-06-30T12:59:46.653Z,3.02
2023-06-30T13:00:53.839Z,2.55
2023-06-30T13:01:46.728Z,2.55
2023-06-30T13:02:46.735Z,2.58
2023-06-30T13:03:46.822Z,2.62
2023-06-30T13:04:46.634Z,2.53
2023-06-30T13:05:46.868Z,2.55
2023-06-30T13:06:46.613Z,2.51
2023-06-30T13:07:46.684Z,2.93